Marion, IA (52302)

4:31 AM CDT on September 01, 2015 (GMT -0500)
KIAMARIO8 | | Change Station
CLOSE
Current Station
Personal Weather Station
Location: Marion, IA
Elevation: 815 ft
Nearby Weather Stations

Elev 815 ft 42.04 °N, 91.56 °W | Updated 7 seconds ago

Clear
Clear
69.3 °F
Feels Like 69.3 °F
N
0.9
Wind Variable Wind from SSE
Gusts 3.1 mph

Today
High -- | Low -- °F
--% Chance of Precip.
Yesterday
High -- | Low -- °F
Precip. -- in
6:31 AM 7:40 PM
Waning Gibbous, 90% visible
Pressure 29.96 in
Visibility 3.0 miles
Clouds Clear
Dew Point 69 °F
Humidity 99%
Rainfall 0.00 in
Snow Depth Not available.
UV 0.0 out of 12
Pollen 10.50 out of 12
Air Quality Not available.
Flu Activity Not available.
METAR KCID 010852Z AUTO 18003KT 3SM BR CLR 21/21 A2998 RMK AO2 SLP144 T02060206 55003
Pressure 29.96 in
Visibility 3.0 miles
Clouds Clear
Dew Point 69 °F
Humidity 99%
Rainfall 0.00 in
Snow Depth Not available.
UV 0.0 out of 12
Pollen 10.50 out of 12
Air Quality Not available.
Flu Activity Not available.
METAR KCID 010852Z AUTO 18003KT 3SM BR CLR 21/21 A2998 RMK AO2 SLP144 T02060206 55003

10-Day Weather Forecast

×

Almanac

Astronomy

Sep. 01, 2015 Rise Set
Actual Time
Civil Twilight
Nautical Twilight
Astronomical Twilight
Moon
Length of Visible Light
Length of Day
Tomorrow will be .
, % of the Moon is Illuminated

Today's Extremes

State Highs State Lows

Community

WunderPhotos

Upload Photos

1,851,499 photos uploaded!

WunderBlogs® & News

Nearby

Air Quality

  Air Quality AQ Index Pollutant
Not available.

Snow Depth

Station Depth Elevation

Earthquake Activity

City Distance Mag. Time & Date
Minimum magnitude displayed is 2.5.

Coastal Water Temperatures

Place Temperature

Stations

Nearby Weather Stations

Station Location Temp. Windchill Dew Point Humidity Wind Precip. Elev Updated Type